Pagrindinis puslapis
METAR-TAF:

METAR-TAF

Oro uostai :

Skaka, Saudo Arabija

platuma: 29-47N, ilguma: 040-06E, Aukštis: 689 m

Dabartinis oras

Ataskaita buvo paskelbta 33 minutes, ne 23:00 UTC
Vėjas 12 kt iš Rytų/Pietryčių
Temperatūra 30°C
Drėgmė 14%
Slėgis 1014 hPa
Matomumas 10 km arba daugiau
nėra debesų žemiau 1500 m ir nėra kamuolinių lietaus debesų

METAR: OESK 052300Z 11012KT CAVOK 30/00 Q1014

Laikas: 02:33 (23:33 UTC)

Prognozė

Ataskaita buvo paskelbta 12 valandos ir 33 minutes, ne 11:00 UTC
Prognozė galioja nuo 05 metu 12 UTC su 06 metu 18 UTC
Vėjas 6 kt iš Rytų/Pietryčių su gūsio iki 16 kt
Matomumas: 6000 m
Mažai debesys ne aukštis 4000 ft
Išsisklaidę debesys ne aukštis 10000 ft
Laikinai
nuo 05 metu 12 UTC su 05 metu 20 UTC
Matomumas: 4000 m
Išsisklaidę debesys ne aukštis 4000 ft
dulkės, Dulkes pustymas
Tikimybė 30% :
Laikinai
nuo 05 metu 12 UTC su 05 metu 18 UTC
Mažai debesys ne aukštis 3500 ft, Liūtiniai kamuoliniai debesys.

TAF: OESK 051100Z 0512/0618 12006G16KT 6000 FEW040 SCT100 TEMPO 0512/0520 4000 DU BLDU SCT040 PROB30 TEMPO 0512/0518 FEW035CB

Orai ataskaitas ir orų prognozės (METAR, TAF).

turimą stotys yra geltonos ir raudonos taškus žemėlapyje.

Perkelti pele per norėdami pamatyti stoties vardą.

Tada spustelėkite, norėdami matyti oro stebėjimo ir prognozės.

Norėdami pakeisti žemėlapį: spustelėkite ant žalios mygtukų su juodo kryžiaus žemyn,; žalią mygtuką su brūkšneliu, jei norite nutolinti; arba žalių rodyklių gretimoms žemėlapius.


METAR-TAF: